sensor_id;sensor_type;location;lat;lon;timestamp;P1;durP1;ratioP1;P2;durP2;ratioP2
57343;SDS011;43180;50.974;18.172;2023-07-02T00:07:24;12.00;;;7.90;;
57343;SDS011;43180;50.974;18.172;2023-07-02T00:17:09;10.60;;;6.10;;
57343;SDS011;43180;50.974;18.172;2023-07-02T00:27:01;7.60;;;4.00;;
57343;SDS011;43180;50.974;18.172;2023-07-02T00:36:44;25.10;;;6.90;;
57343;SDS011;43180;50.974;18.172;2023-07-02T00:46:28;13.90;;;8.70;;
57343;SDS011;43180;50.974;18.172;2023-07-02T00:56:17;18.40;;;7.20;;
57343;SDS011;43180;50.974;18.172;2023-07-02T01:06:28;31.90;;;8.40;;
57343;SDS011;43180;50.974;18.172;2023-07-02T01:23:34;12.80;;;6.00;;
57343;SDS011;43180;50.974;18.172;2023-07-02T01:33:25;9.90;;;6.40;;
57343;SDS011;43180;50.974;18.172;2023-07-02T01:43:07;11.40;;;7.50;;
57343;SDS011;43180;50.974;18.172;2023-07-02T01:52:50;13.70;;;8.50;;
57343;SDS011;43180;50.974;18.172;2023-07-02T02:02:35;10.70;;;7.00;;
57343;SDS011;43180;50.974;18.172;2023-07-02T02:12:18;16.80;;;6.60;;
57343;SDS011;43180;50.974;18.172;2023-07-02T02:22:00;24.60;;;6.20;;
57343;SDS011;43180;50.974;18.172;2023-07-02T02:31:43;7.10;;;4.10;;
57343;SDS011;43180;50.974;18.172;2023-07-02T02:41:26;13.30;;;6.40;;
57343;SDS011;43180;50.974;18.172;2023-07-02T02:51:13;12.00;;;6.20;;
57343;SDS011;43180;50.974;18.172;2023-07-02T03:00:56;9.40;;;6.30;;
57343;SDS011;43180;50.974;18.172;2023-07-02T03:10:44;17.70;;;5.70;;
57343;SDS011;43180;50.974;18.172;2023-07-02T03:20:26;12.10;;;6.50;;
57343;SDS011;43180;50.974;18.172;2023-07-02T03:30:09;14.90;;;6.40;;
57343;SDS011;43180;50.974;18.172;2023-07-02T03:39:54;13.70;;;6.20;;
57343;SDS011;43180;50.974;18.172;2023-07-02T03:49:41;7.80;;;4.40;;
57343;SDS011;43180;50.974;18.172;2023-07-02T03:59:24;10.40;;;4.10;;
57343;SDS011;43180;50.974;18.172;2023-07-02T04:09:08;5.10;;;2.80;;
57343;SDS011;43180;50.974;18.172;2023-07-02T04:18:51;4.60;;;3.20;;
57343;SDS011;43180;50.974;18.172;2023-07-02T04:28:34;3.50;;;2.90;;
57343;SDS011;43180;50.974;18.172;2023-07-02T04:38:17;6.30;;;3.00;;
57343;SDS011;43180;50.974;18.172;2023-07-02T04:48:02;4.70;;;2.60;;
57343;SDS011;43180;50.974;18.172;2023-07-02T04:57:46;2.60;;;1.90;;
57343;SDS011;43180;50.974;18.172;2023-07-02T05:07:32;9.60;;;2.00;;
57343;SDS011;43180;50.974;18.172;2023-07-02T05:17:15;1.50;;;1.00;;
57343;SDS011;43180;50.974;18.172;2023-07-02T05:26:59;0.50;;;0.50;;
57343;SDS011;43180;50.974;18.172;2023-07-02T05:36:41;2.10;;;1.60;;
57343;SDS011;43180;50.974;18.172;2023-07-02T05:46:24;1.30;;;1.20;;
57343;SDS011;43180;50.974;18.172;2023-07-02T05:56:14;1.50;;;1.30;;
57343;SDS011;43180;50.974;18.172;2023-07-02T06:05:57;0.80;;;0.70;;
57343;SDS011;43180;50.974;18.172;2023-07-02T06:15:41;1.80;;;1.40;;
57343;SDS011;43180;50.974;18.172;2023-07-02T06:25:25;4.30;;;1.90;;
57343;SDS011;43180;50.974;18.172;2023-07-02T06:35:12;1.70;;;1.60;;
57343;SDS011;43180;50.974;18.172;2023-07-02T06:44:56;7.20;;;1.60;;
57343;SDS011;43180;50.974;18.172;2023-07-02T06:54:43;6.40;;;1.60;;
57343;SDS011;43180;50.974;18.172;2023-07-02T07:04:25;5.10;;;2.30;;
57343;SDS011;43180;50.974;18.172;2023-07-02T07:14:09;1.60;;;1.50;;
57343;SDS011;43180;50.974;18.172;2023-07-02T07:23:52;4.30;;;1.90;;
57343;SDS011;43180;50.974;18.172;2023-07-02T07:33:35;2.00;;;1.50;;
57343;SDS011;43180;50.974;18.172;2023-07-02T07:43:19;4.50;;;2.00;;
57343;SDS011;43180;50.974;18.172;2023-07-02T07:53:01;2.30;;;2.10;;
57343;SDS011;43180;50.974;18.172;2023-07-02T08:02:45;2.20;;;1.50;;
57343;SDS011;43180;50.974;18.172;2023-07-02T08:12:33;1.80;;;1.70;;
57343;SDS011;43180;50.974;18.172;2023-07-02T08:32:43;2.50;;;1.70;;
57343;SDS011;43180;50.974;18.172;2023-07-02T08:42:25;2.60;;;1.90;;
57343;SDS011;43180;50.974;18.172;2023-07-02T08:52:13;4.60;;;3.50;;
57343;SDS011;43180;50.974;18.172;2023-07-02T09:01:56;11.20;;;5.70;;
57343;SDS011;43180;50.974;18.172;2023-07-02T09:11:48;2.20;;;2.00;;
57343;SDS011;43180;50.974;18.172;2023-07-02T09:22:15;4.50;;;1.80;;
57343;SDS011;43180;50.974;18.172;2023-07-02T09:41:56;0.60;;;0.60;;
57343;SDS011;43180;50.974;18.172;2023-07-02T09:52:03;1.90;;;1.80;;
57343;SDS011;43180;50.974;18.172;2023-07-02T09:54:30;3.50;;;2.10;;
57343;SDS011;43180;50.974;18.172;2023-07-02T10:04:14;2.60;;;2.20;;
57343;SDS011;43180;50.974;18.172;2023-07-02T10:14:03;1.70;;;1.50;;
57343;SDS011;43180;50.974;18.172;2023-07-02T10:24:11;1.60;;;1.50;;
57343;SDS011;43180;50.974;18.172;2023-07-02T10:33:55;2.60;;;2.00;;
57343;SDS011;43180;50.974;18.172;2023-07-02T10:43:48;1.70;;;1.60;;
57343;SDS011;43180;50.974;18.172;2023-07-02T10:53:56;1.50;;;1.40;;
57343;SDS011;43180;50.974;18.172;2023-07-02T11:03:58;1.20;;;1.20;;
57343;SDS011;43180;50.974;18.172;2023-07-02T11:13:49;3.00;;;1.90;;
57343;SDS011;43180;50.974;18.172;2023-07-02T11:23:37;2.90;;;1.70;;
57343;SDS011;43180;50.974;18.172;2023-07-02T11:33:39;5.00;;;2.50;;
57343;SDS011;43180;50.974;18.172;2023-07-02T11:43:30;4.70;;;2.40;;
57343;SDS011;43180;50.974;18.172;2023-07-02T11:53:12;1.60;;;1.50;;
57343;SDS011;43180;50.974;18.172;2023-07-02T12:02:55;2.30;;;1.80;;
57343;SDS011;43180;50.974;18.172;2023-07-02T12:12:37;4.40;;;2.20;;
57343;SDS011;43180;50.974;18.172;2023-07-02T12:22:20;12.10;;;2.10;;
57343;SDS011;43180;50.974;18.172;2023-07-02T12:32:06;2.90;;;1.60;;
57343;SDS011;43180;50.974;18.172;2023-07-02T12:41:49;1.60;;;1.50;;
57343;SDS011;43180;50.974;18.172;2023-07-02T12:51:31;2.40;;;1.60;;
57343;SDS011;43180;50.974;18.172;2023-07-02T13:01:14;1.40;;;1.40;;
57343;SDS011;43180;50.974;18.172;2023-07-02T13:11:01;0.90;;;0.90;;
57343;SDS011;43180;50.974;18.172;2023-07-02T13:20:43;1.10;;;1.10;;
57343;SDS011;43180;50.974;18.172;2023-07-02T13:30:25;2.90;;;1.50;;
57343;SDS011;43180;50.974;18.172;2023-07-02T13:40:11;0.90;;;0.90;;
57343;SDS011;43180;50.974;18.172;2023-07-02T13:49:55;1.30;;;1.30;;
57343;SDS011;43180;50.974;18.172;2023-07-02T13:59:37;1.40;;;1.30;;
57343;SDS011;43180;50.974;18.172;2023-07-02T14:09:19;5.90;;;1.60;;
57343;SDS011;43180;50.974;18.172;2023-07-02T14:19:02;0.60;;;0.60;;
57343;SDS011;43180;50.974;18.172;2023-07-02T14:28:44;1.50;;;1.20;;
57343;SDS011;43180;50.974;18.172;2023-07-02T14:38:27;1.40;;;1.30;;
57343;SDS011;43180;50.974;18.172;2023-07-02T14:48:12;1.40;;;1.30;;
57343;SDS011;43180;50.974;18.172;2023-07-02T14:58:01;4.60;;;2.00;;
57343;SDS011;43180;50.974;18.172;2023-07-02T15:07:43;1.10;;;1.00;;
57343;SDS011;43180;50.974;18.172;2023-07-02T15:17:25;1.60;;;1.20;;
57343;SDS011;43180;50.974;18.172;2023-07-02T15:27:07;1.90;;;1.60;;
57343;SDS011;43180;50.974;18.172;2023-07-02T15:36:50;1.80;;;1.60;;
57343;SDS011;43180;50.974;18.172;2023-07-02T15:46:38;2.30;;;1.70;;
57343;SDS011;43180;50.974;18.172;2023-07-02T15:56:29;10.60;;;1.50;;
57343;SDS011;43180;50.974;18.172;2023-07-02T16:06:15;1.30;;;1.20;;
57343;SDS011;43180;50.974;18.172;2023-07-02T16:16:03;6.90;;;1.30;;
57343;SDS011;43180;50.974;18.172;2023-07-02T16:25:54;1.00;;;1.00;;
57343;SDS011;43180;50.974;18.172;2023-07-02T16:35:37;2.00;;;1.20;;
57343;SDS011;43180;50.974;18.172;2023-07-02T16:45:22;2.10;;;0.90;;
57343;SDS011;43180;50.974;18.172;2023-07-02T16:55:05;4.70;;;1.60;;
57343;SDS011;43180;50.974;18.172;2023-07-02T17:04:48;1.30;;;1.20;;
57343;SDS011;43180;50.974;18.172;2023-07-02T17:14:35;1.30;;;1.20;;
57343;SDS011;43180;50.974;18.172;2023-07-02T17:24:29;1.20;;;1.10;;
57343;SDS011;43180;50.974;18.172;2023-07-02T17:34:16;1.80;;;1.60;;
57343;SDS011;43180;50.974;18.172;2023-07-02T17:44:07;1.40;;;1.10;;
57343;SDS011;43180;50.974;18.172;2023-07-02T17:53:50;0.80;;;0.80;;
57343;SDS011;43180;50.974;18.172;2023-07-02T18:03:32;2.10;;;1.90;;
57343;SDS011;43180;50.974;18.172;2023-07-02T18:13:15;1.40;;;1.30;;
57343;SDS011;43180;50.974;18.172;2023-07-02T18:23:01;2.60;;;2.00;;
57343;SDS011;43180;50.974;18.172;2023-07-02T18:32:54;2.40;;;1.40;;
57343;SDS011;43180;50.974;18.172;2023-07-02T18:42:38;2.30;;;2.00;;
57343;SDS011;43180;50.974;18.172;2023-07-02T18:52:21;1.60;;;1.50;;
57343;SDS011;43180;50.974;18.172;2023-07-02T19:02:13;4.60;;;2.90;;
57343;SDS011;43180;50.974;18.172;2023-07-02T19:12:01;24.70;;;15.40;;
57343;SDS011;43180;50.974;18.172;2023-07-02T19:21:46;19.40;;;10.40;;
57343;SDS011;43180;50.974;18.172;2023-07-02T19:31:28;4.20;;;2.80;;
57343;SDS011;43180;50.974;18.172;2023-07-02T19:41:11;3.00;;;2.30;;
57343;SDS011;43180;50.974;18.172;2023-07-02T19:51:00;13.90;;;5.30;;
57343;SDS011;43180;50.974;18.172;2023-07-02T20:00:43;5.40;;;4.00;;
57343;SDS011;43180;50.974;18.172;2023-07-02T20:10:28;10.70;;;5.20;;
57343;SDS011;43180;50.974;18.172;2023-07-02T20:20:11;9.70;;;5.20;;
57343;SDS011;43180;50.974;18.172;2023-07-02T20:29:54;2.40;;;1.50;;
57343;SDS011;43180;50.974;18.172;2023-07-02T20:39:43;3.00;;;2.60;;
57343;SDS011;43180;50.974;18.172;2023-07-02T20:49:33;7.20;;;3.50;;
57343;SDS011;43180;50.974;18.172;2023-07-02T20:59:17;1.70;;;1.50;;
57343;SDS011;43180;50.974;18.172;2023-07-02T21:04:08;11.80;;;6.70;;
57343;SDS011;43180;50.974;18.172;2023-07-02T21:13:55;8.30;;;4.80;;
57343;SDS011;43180;50.974;18.172;2023-07-02T21:23:37;3.20;;;2.90;;
57343;SDS011;43180;50.974;18.172;2023-07-02T21:33:19;5.40;;;3.80;;
57343;SDS011;43180;50.974;18.172;2023-07-02T21:43:02;5.80;;;2.90;;
57343;SDS011;43180;50.974;18.172;2023-07-02T21:52:44;5.30;;;2.50;;
57343;SDS011;43180;50.974;18.172;2023-07-02T22:02:28;4.70;;;3.70;;
57343;SDS011;43180;50.974;18.172;2023-07-02T22:12:11;4.40;;;2.90;;
57343;SDS011;43180;50.974;18.172;2023-07-02T22:22:01;5.50;;;3.20;;
57343;SDS011;43180;50.974;18.172;2023-07-02T22:39:01;6.20;;;1.70;;
57343;SDS011;43180;50.974;18.172;2023-07-02T22:48:43;14.30;;;3.80;;
57343;SDS011;43180;50.974;18.172;2023-07-02T22:58:35;4.30;;;2.50;;
57343;SDS011;43180;50.974;18.172;2023-07-02T23:08:18;3.90;;;2.90;;
57343;SDS011;43180;50.974;18.172;2023-07-02T23:18:00;3.30;;;3.00;;
57343;SDS011;43180;50.974;18.172;2023-07-02T23:27:45;5.90;;;4.00;;
57343;SDS011;43180;50.974;18.172;2023-07-02T23:37:32;4.30;;;3.40;;
57343;SDS011;43180;50.974;18.172;2023-07-02T23:47:16;4.20;;;3.10;;
57343;SDS011;43180;50.974;18.172;2023-07-02T23:56:59;7.20;;;5.10;;
